sensor_id;sensor_type;location;lat;lon;timestamp;pressure;altitude;pressure_sealevel;temperature;humidity
27425;BME280;15244;49.088;11.886;2023-05-08T00:03:45;96128.44;;;18.38;39.42
27425;BME280;15244;49.088;11.886;2023-05-08T00:08:47;96130.13;;;18.32;39.54
27425;BME280;15244;49.088;11.886;2023-05-08T00:13:49;96123.97;;;18.24;39.60
27425;BME280;15244;49.088;11.886;2023-05-08T00:18:50;96126.88;;;18.17;39.72
27425;BME280;15244;49.088;11.886;2023-05-08T00:23:53;96125.38;;;18.12;39.98
27425;BME280;15244;49.088;11.886;2023-05-08T00:28:55;96130.25;;;18.05;39.94
27425;BME280;15244;49.088;11.886;2023-05-08T00:33:56;96142.91;;;18.02;39.71
27425;BME280;15244;49.088;11.886;2023-05-08T00:38:58;96137.50;;;17.95;39.94
27425;BME280;15244;49.088;11.886;2023-05-08T00:44:00;96146.72;;;17.88;40.10
27425;BME280;15244;49.088;11.886;2023-05-08T00:49:03;96150.38;;;17.82;40.19
27425;BME280;15244;49.088;11.886;2023-05-08T00:54:06;96154.78;;;17.75;40.26
27425;BME280;15244;49.088;11.886;2023-05-08T00:59:08;96156.13;;;17.67;40.23
27425;BME280;15244;49.088;11.886;2023-05-08T01:04:13;96153.03;;;17.62;40.33
27425;BME280;15244;49.088;11.886;2023-05-08T01:09:14;96161.78;;;17.57;40.26
27425;BME280;15244;49.088;11.886;2023-05-08T01:14:20;96163.03;;;17.52;40.42
27425;BME280;15244;49.088;11.886;2023-05-08T01:30:53;96180.69;;;17.31;40.87
27425;BME280;15244;49.088;11.886;2023-05-08T01:36:09;96187.44;;;17.26;40.82
27425;BME280;15244;49.088;11.886;2023-05-08T01:41:15;96186.72;;;17.22;40.84
27425;BME280;15244;49.088;11.886;2023-05-08T01:46:22;96191.50;;;17.18;40.95
27425;BME280;15244;49.088;11.886;2023-05-08T01:51:27;96193.56;;;17.10;40.90
27425;BME280;15244;49.088;11.886;2023-05-08T01:56:32;96200.38;;;17.02;41.12
27425;BME280;15244;49.088;11.886;2023-05-08T02:01:35;96198.88;;;16.98;41.23
27425;BME280;15244;49.088;11.886;2023-05-08T02:06:37;96196.19;;;16.90;41.29
27425;BME280;15244;49.088;11.886;2023-05-08T02:11:41;96209.25;;;16.86;41.43
27425;BME280;15244;49.088;11.886;2023-05-08T02:16:45;96198.31;;;16.79;41.40
27425;BME280;15244;49.088;11.886;2023-05-08T02:21:49;96218.78;;;16.75;41.52
27425;BME280;15244;49.088;11.886;2023-05-08T02:26:52;96219.66;;;16.68;41.46
27425;BME280;15244;49.088;11.886;2023-05-08T02:31:56;96210.31;;;16.58;41.58
27425;BME280;15244;49.088;11.886;2023-05-08T02:36:58;96217.88;;;16.51;41.68
27425;BME280;15244;49.088;11.886;2023-05-08T02:42:01;96214.44;;;16.43;41.70
27425;BME280;15244;49.088;11.886;2023-05-08T02:47:14;96215.69;;;16.35;41.80
27425;BME280;15244;49.088;11.886;2023-05-08T02:52:31;96224.03;;;16.28;41.92
27425;BME280;15244;49.088;11.886;2023-05-08T02:57:45;96231.19;;;16.18;42.19
27425;BME280;15244;49.088;11.886;2023-05-08T03:02:58;96232.00;;;16.15;42.09
27425;BME280;15244;49.088;11.886;2023-05-08T03:08:14;96233.22;;;16.10;42.38
27425;BME280;15244;49.088;11.886;2023-05-08T03:13:17;96234.88;;;16.04;42.33
27425;BME280;15244;49.088;11.886;2023-05-08T03:18:24;96237.69;;;15.97;42.45
27425;BME280;15244;49.088;11.886;2023-05-08T03:23:29;96228.28;;;15.94;42.47
27425;BME280;15244;49.088;11.886;2023-05-08T03:28:34;96239.31;;;15.91;42.69
27425;BME280;15244;49.088;11.886;2023-05-08T03:33:36;96240.13;;;15.88;42.68
27425;BME280;15244;49.088;11.886;2023-05-08T03:38:39;96234.63;;;15.84;42.65
27425;BME280;15244;49.088;11.886;2023-05-08T03:43:42;96233.91;;;15.80;42.63
27425;BME280;15244;49.088;11.886;2023-05-08T03:48:45;96245.28;;;15.78;42.80
27425;BME280;15244;49.088;11.886;2023-05-08T03:53:48;96254.34;;;15.75;42.79
27425;BME280;15244;49.088;11.886;2023-05-08T03:58:55;96250.06;;;15.71;43.00
27425;BME280;15244;49.088;11.886;2023-05-08T04:04:06;96248.09;;;15.68;42.93
27425;BME280;15244;49.088;11.886;2023-05-08T04:14:23;96258.28;;;15.67;42.84
27425;BME280;15244;49.088;11.886;2023-05-08T04:19:28;96256.75;;;15.66;43.11
27425;BME280;15244;49.088;11.886;2023-05-08T04:24:37;96263.06;;;15.63;43.28
27425;BME280;15244;49.088;11.886;2023-05-08T04:29:41;96266.19;;;15.61;43.24
27425;BME280;15244;49.088;11.886;2023-05-08T04:34:43;96270.91;;;15.61;43.09
27425;BME280;15244;49.088;11.886;2023-05-08T04:39:49;96274.06;;;15.59;43.27
27425;BME280;15244;49.088;11.886;2023-05-08T04:44:52;96275.25;;;15.58;43.23
27425;BME280;15244;49.088;11.886;2023-05-08T04:49:54;96280.34;;;15.56;43.28
27425;BME280;15244;49.088;11.886;2023-05-08T04:54:56;96285.84;;;15.56;43.54
27425;BME280;15244;49.088;11.886;2023-05-08T04:59:58;96294.09;;;15.56;43.51
27425;BME280;15244;49.088;11.886;2023-05-08T05:05:00;96303.13;;;15.57;43.33
27425;BME280;15244;49.088;11.886;2023-05-08T05:10:03;96307.84;;;15.56;43.52
27425;BME280;15244;49.088;11.886;2023-05-08T05:15:07;96296.06;;;15.56;43.77
27425;BME280;15244;49.088;11.886;2023-05-08T05:20:11;96305.88;;;15.57;43.51
27425;BME280;15244;49.088;11.886;2023-05-08T05:25:13;96307.03;;;15.59;43.82
27425;BME280;15244;49.088;11.886;2023-05-08T05:30:15;96306.25;;;15.63;43.76
27425;BME280;15244;49.088;11.886;2023-05-08T05:35:17;96312.50;;;15.67;43.79
27425;BME280;15244;49.088;11.886;2023-05-08T05:40:19;96306.59;;;15.72;43.83
27425;BME280;15244;49.088;11.886;2023-05-08T05:45:21;96304.63;;;15.76;43.59
27425;BME280;15244;49.088;11.886;2023-05-08T05:50:24;96311.28;;;15.78;43.66
27425;BME280;15244;49.088;11.886;2023-05-08T05:55:28;96313.59;;;15.84;43.70
27425;BME280;15244;49.088;11.886;2023-05-08T06:00:31;96305.69;;;15.89;43.73
27425;BME280;15244;49.088;11.886;2023-05-08T06:05:33;96317.84;;;15.95;43.69
27425;BME280;15244;49.088;11.886;2023-05-08T06:10:36;96318.97;;;16.01;43.72
27425;BME280;15244;49.088;11.886;2023-05-08T06:15:38;96316.56;;;16.07;43.83
27425;BME280;15244;49.088;11.886;2023-05-08T06:20:40;96312.56;;;16.15;44.00
27425;BME280;15244;49.088;11.886;2023-05-08T06:25:43;96310.13;;;16.24;43.88
27425;BME280;15244;49.088;11.886;2023-05-08T06:30:44;96324.59;;;16.32;43.78
27425;BME280;15244;49.088;11.886;2023-05-08T06:35:47;96325.31;;;16.43;43.80
27425;BME280;15244;49.088;11.886;2023-05-08T06:40:49;96334.63;;;16.53;44.03
27425;BME280;15244;49.088;11.886;2023-05-08T06:45:51;96330.19;;;16.66;43.94
27425;BME280;15244;49.088;11.886;2023-05-08T06:50:53;96329.72;;;16.79;44.01
27425;BME280;15244;49.088;11.886;2023-05-08T06:55:56;96327.25;;;16.88;44.12
27425;BME280;15244;49.088;11.886;2023-05-08T07:01:01;96324.41;;;16.95;43.96
27425;BME280;15244;49.088;11.886;2023-05-08T07:06:03;96330.25;;;17.01;43.83
27425;BME280;15244;49.088;11.886;2023-05-08T07:11:05;96336.88;;;17.07;44.19
27425;BME280;15244;49.088;11.886;2023-05-08T07:16:09;96332.44;;;17.17;44.23
27425;BME280;15244;49.088;11.886;2023-05-08T07:21:11;96333.91;;;17.25;44.39
27425;BME280;15244;49.088;11.886;2023-05-08T07:26:12;96342.03;;;17.36;44.43
27425;BME280;15244;49.088;11.886;2023-05-08T07:31:15;96339.91;;;17.47;44.53
27425;BME280;15244;49.088;11.886;2023-05-08T07:36:17;96340.16;;;17.60;44.61
27425;BME280;15244;49.088;11.886;2023-05-08T07:41:18;96341.94;;;17.73;44.09
27425;BME280;15244;49.088;11.886;2023-05-08T07:46:21;96344.53;;;17.88;44.07
27425;BME280;15244;49.088;11.886;2023-05-08T07:51:23;96349.41;;;18.04;43.49
27425;BME280;15244;49.088;11.886;2023-05-08T07:56:25;96349.25;;;18.14;43.59
27425;BME280;15244;49.088;11.886;2023-05-08T08:01:27;96350.22;;;18.28;43.38
27425;BME280;15244;49.088;11.886;2023-05-08T08:06:29;96345.72;;;18.37;42.93
27425;BME280;15244;49.088;11.886;2023-05-08T08:11:32;96346.69;;;18.51;43.15
27425;BME280;15244;49.088;11.886;2023-05-08T08:16:33;96342.53;;;18.62;43.22
27425;BME280;15244;49.088;11.886;2023-05-08T08:21:35;96343.16;;;18.74;43.28
27425;BME280;15244;49.088;11.886;2023-05-08T08:26:37;96337.88;;;18.83;43.12
27425;BME280;15244;49.088;11.886;2023-05-08T08:31:39;96337.59;;;18.97;42.98
27425;BME280;15244;49.088;11.886;2023-05-08T08:36:42;96338.16;;;19.09;42.80
27425;BME280;15244;49.088;11.886;2023-05-08T08:41:44;96328.38;;;19.24;42.88
27425;BME280;15244;49.088;11.886;2023-05-08T08:46:52;96333.22;;;19.40;43.03
27425;BME280;15244;49.088;11.886;2023-05-08T08:51:57;96331.78;;;19.52;42.34
27425;BME280;15244;49.088;11.886;2023-05-08T08:57:00;96329.47;;;19.66;42.28
27425;BME280;15244;49.088;11.886;2023-05-08T09:02:09;96331.19;;;19.80;42.20
27425;BME280;15244;49.088;11.886;2023-05-08T09:07:12;96331.22;;;19.97;42.13
27425;BME280;15244;49.088;11.886;2023-05-08T09:12:13;96334.06;;;20.09;41.93
27425;BME280;15244;49.088;11.886;2023-05-08T09:17:16;96319.19;;;20.20;42.00
27425;BME280;15244;49.088;11.886;2023-05-08T09:22:18;96325.69;;;20.29;41.74
27425;BME280;15244;49.088;11.886;2023-05-08T09:27:21;96319.53;;;20.38;41.71
27425;BME280;15244;49.088;11.886;2023-05-08T09:32:23;96323.25;;;20.48;41.33
27425;BME280;15244;49.088;11.886;2023-05-08T09:37:25;96321.91;;;20.56;41.47
27425;BME280;15244;49.088;11.886;2023-05-08T09:42:36;96324.28;;;20.70;41.23
27425;BME280;15244;49.088;11.886;2023-05-08T09:47:46;96327.22;;;20.80;41.09
27425;BME280;15244;49.088;11.886;2023-05-08T09:52:49;96325.28;;;20.93;41.07
27425;BME280;15244;49.088;11.886;2023-05-08T09:57:58;96329.75;;;21.03;41.30
27425;BME280;15244;49.088;11.886;2023-05-08T10:03:01;96336.59;;;21.15;41.65
27425;BME280;15244;49.088;11.886;2023-05-08T10:08:19;96331.50;;;21.26;41.58
27425;BME280;15244;49.088;11.886;2023-05-08T10:13:21;96327.66;;;21.36;41.35
27425;BME280;15244;49.088;11.886;2023-05-08T10:18:26;96329.63;;;21.52;41.54
27425;BME280;15244;49.088;11.886;2023-05-08T10:23:33;96322.84;;;21.66;40.56
27425;BME280;15244;49.088;11.886;2023-05-08T10:28:39;96320.53;;;21.77;40.91
27425;BME280;15244;49.088;11.886;2023-05-08T10:33:44;96317.66;;;21.94;40.64
27425;BME280;15244;49.088;11.886;2023-05-08T10:38:49;96310.78;;;22.11;40.39
27425;BME280;15244;49.088;11.886;2023-05-08T10:43:50;96319.75;;;22.28;40.21
27425;BME280;15244;49.088;11.886;2023-05-08T10:49:02;96304.97;;;22.44;39.95
27425;BME280;15244;49.088;11.886;2023-05-08T10:54:20;96310.94;;;22.55;39.72
27425;BME280;15244;49.088;11.886;2023-05-08T10:59:34;96302.38;;;22.62;39.04
27425;BME280;15244;49.088;11.886;2023-05-08T11:04:38;96301.78;;;22.67;39.28
27425;BME280;15244;49.088;11.886;2023-05-08T11:14:43;96303.34;;;22.68;38.16
27425;BME280;15244;49.088;11.886;2023-05-08T11:20:11;96291.44;;;22.68;38.08
27425;BME280;15244;49.088;11.886;2023-05-08T11:25:13;96307.50;;;22.64;38.20
27425;BME280;15244;49.088;11.886;2023-05-08T11:35:48;96288.84;;;22.52;37.71
27425;BME280;15244;49.088;11.886;2023-05-08T11:41:00;96284.50;;;22.50;38.05
27425;BME280;15244;49.088;11.886;2023-05-08T11:46:20;96284.50;;;22.50;37.92
27425;BME280;15244;49.088;11.886;2023-05-08T11:51:22;96286.16;;;22.48;37.85
27425;BME280;15244;49.088;11.886;2023-05-08T11:56:24;96300.06;;;22.48;37.77
27425;BME280;15244;49.088;11.886;2023-05-08T12:01:33;96289.28;;;22.50;37.62
27425;BME280;15244;49.088;11.886;2023-05-08T12:06:37;96293.63;;;22.51;37.40
27425;BME280;15244;49.088;11.886;2023-05-08T12:11:39;96298.38;;;22.50;37.78
27425;BME280;15244;49.088;11.886;2023-05-08T12:16:45;96295.16;;;22.52;37.65
27425;BME280;15244;49.088;11.886;2023-05-08T12:21:47;96303.94;;;22.50;37.35
27425;BME280;15244;49.088;11.886;2023-05-08T12:26:53;96307.53;;;22.51;37.67
27425;BME280;15244;49.088;11.886;2023-05-08T12:31:57;96305.50;;;22.52;37.84
27425;BME280;15244;49.088;11.886;2023-05-08T12:37:02;96306.72;;;22.50;37.70
27425;BME280;15244;49.088;11.886;2023-05-08T12:42:05;96305.63;;;22.48;37.63
27425;BME280;15244;49.088;11.886;2023-05-08T12:47:07;96306.97;;;22.43;37.34
27425;BME280;15244;49.088;11.886;2023-05-08T12:52:12;96302.75;;;22.39;37.71
27425;BME280;15244;49.088;11.886;2023-05-08T12:57:15;96313.66;;;22.33;37.46
27425;BME280;15244;49.088;11.886;2023-05-08T13:02:19;96313.78;;;22.29;37.68
27425;BME280;15244;49.088;11.886;2023-05-08T13:07:30;96310.66;;;22.27;37.62
27425;BME280;15244;49.088;11.886;2023-05-08T13:12:32;96301.22;;;22.25;37.45
27425;BME280;15244;49.088;11.886;2023-05-08T13:17:34;96301.78;;;22.20;37.98
27425;BME280;15244;49.088;11.886;2023-05-08T13:22:36;96302.22;;;22.18;37.36
27425;BME280;15244;49.088;11.886;2023-05-08T13:27:37;96298.75;;;22.14;37.57
27425;BME280;15244;49.088;11.886;2023-05-08T13:32:40;96299.19;;;22.13;37.77
27425;BME280;15244;49.088;11.886;2023-05-08T13:37:41;96293.34;;;22.11;37.81
27425;BME280;15244;49.088;11.886;2023-05-08T13:42:43;96290.66;;;22.07;37.55
27425;BME280;15244;49.088;11.886;2023-05-08T13:47:45;96276.00;;;22.06;37.66
27425;BME280;15244;49.088;11.886;2023-05-08T13:52:48;96284.66;;;22.08;37.31
27425;BME280;15244;49.088;11.886;2023-05-08T13:57:50;96283.44;;;22.10;37.60
27425;BME280;15244;49.088;11.886;2023-05-08T14:02:52;96275.88;;;22.10;37.69
27425;BME280;15244;49.088;11.886;2023-05-08T14:07:54;96284.22;;;22.10;37.28
27425;BME280;15244;49.088;11.886;2023-05-08T14:12:55;96288.56;;;22.11;37.07
27425;BME280;15244;49.088;11.886;2023-05-08T14:17:57;96284.88;;;22.14;37.20
27425;BME280;15244;49.088;11.886;2023-05-08T14:22:58;96277.44;;;22.11;37.46
27425;BME280;15244;49.088;11.886;2023-05-08T14:28:01;96277.13;;;22.09;37.65
27425;BME280;15244;49.088;11.886;2023-05-08T14:33:02;96280.44;;;22.04;36.98
27425;BME280;15244;49.088;11.886;2023-05-08T14:38:05;96280.34;;;21.95;36.73
27425;BME280;15244;49.088;11.886;2023-05-08T14:43:07;96276.13;;;21.90;36.51
27425;BME280;15244;49.088;11.886;2023-05-08T14:48:08;96283.22;;;21.91;36.92
27425;BME280;15244;49.088;11.886;2023-05-08T14:53:10;96266.16;;;21.93;37.52
27425;BME280;15244;49.088;11.886;2023-05-08T14:58:12;96264.56;;;21.92;37.30
27425;BME280;15244;49.088;11.886;2023-05-08T15:03:13;96267.34;;;21.92;37.04
27425;BME280;15244;49.088;11.886;2023-05-08T15:08:15;96268.13;;;21.92;37.15
27425;BME280;15244;49.088;11.886;2023-05-08T15:13:18;96262.56;;;21.92;37.14
27425;BME280;15244;49.088;11.886;2023-05-08T15:18:19;96269.03;;;21.89;36.97
27425;BME280;15244;49.088;11.886;2023-05-08T15:23:21;96271.13;;;21.85;36.90
27425;BME280;15244;49.088;11.886;2023-05-08T15:28:22;96258.13;;;21.82;37.01
27425;BME280;15244;49.088;11.886;2023-05-08T15:33:24;96268.13;;;21.79;36.64
27425;BME280;15244;49.088;11.886;2023-05-08T15:38:26;96269.03;;;21.76;36.40
27425;BME280;15244;49.088;11.886;2023-05-08T15:43:27;96262.81;;;21.72;36.92
27425;BME280;15244;49.088;11.886;2023-05-08T15:48:29;96269.25;;;21.69;37.00
27425;BME280;15244;49.088;11.886;2023-05-08T15:53:31;96263.34;;;21.67;36.86
27425;BME280;15244;49.088;11.886;2023-05-08T15:58:33;96256.69;;;21.64;36.90
27425;BME280;15244;49.088;11.886;2023-05-08T16:03:36;96253.59;;;21.62;36.70
27425;BME280;15244;49.088;11.886;2023-05-08T16:08:38;96256.81;;;21.61;36.58
27425;BME280;15244;49.088;11.886;2023-05-08T16:13:40;96258.06;;;21.60;36.73
27425;BME280;15244;49.088;11.886;2023-05-08T16:18:42;96254.47;;;21.59;36.83
27425;BME280;15244;49.088;11.886;2023-05-08T16:23:43;96252.50;;;21.60;36.93
27425;BME280;15244;49.088;11.886;2023-05-08T16:28:45;96250.84;;;21.62;36.61
27425;BME280;15244;49.088;11.886;2023-05-08T16:33:46;96235.28;;;21.65;37.21
27425;BME280;15244;49.088;11.886;2023-05-08T16:38:48;96243.50;;;21.69;37.25
27425;BME280;15244;49.088;11.886;2023-05-08T16:43:49;96250.03;;;21.75;37.15
27425;BME280;15244;49.088;11.886;2023-05-08T16:48:51;96235.94;;;21.82;37.47
27425;BME280;15244;49.088;11.886;2023-05-08T16:53:52;96245.34;;;21.97;37.46
27425;BME280;15244;49.088;11.886;2023-05-08T16:58:57;96244.91;;;22.12;36.94
27425;BME280;15244;49.088;11.886;2023-05-08T17:03:59;96240.59;;;22.23;36.44
27425;BME280;15244;49.088;11.886;2023-05-08T17:09:01;96254.53;;;22.33;36.29
27425;BME280;15244;49.088;11.886;2023-05-08T17:14:03;96256.41;;;22.36;36.09
27425;BME280;15244;49.088;11.886;2023-05-08T17:19:05;96256.09;;;22.34;35.78
27425;BME280;15244;49.088;11.886;2023-05-08T17:24:07;96253.56;;;22.26;35.56
27425;BME280;15244;49.088;11.886;2023-05-08T17:29:08;96257.88;;;22.15;35.40
27425;BME280;15244;49.088;11.886;2023-05-08T17:34:10;96261.00;;;22.04;35.52
27425;BME280;15244;49.088;11.886;2023-05-08T17:39:11;96251.94;;;21.91;36.25
27425;BME280;15244;49.088;11.886;2023-05-08T17:44:14;96264.16;;;21.80;36.08
27425;BME280;15244;49.088;11.886;2023-05-08T17:49:15;96273.59;;;21.70;36.18
27425;BME280;15244;49.088;11.886;2023-05-08T17:54:19;96274.34;;;21.58;36.51
27425;BME280;15244;49.088;11.886;2023-05-08T17:59:21;96286.56;;;21.48;36.27
27425;BME280;15244;49.088;11.886;2023-05-08T18:04:23;96283.28;;;21.36;36.23
27425;BME280;15244;49.088;11.886;2023-05-08T18:09:24;96279.59;;;21.27;36.29
27425;BME280;15244;49.088;11.886;2023-05-08T18:14:30;96283.78;;;21.18;36.46
27425;BME280;15244;49.088;11.886;2023-05-08T18:19:34;96278.91;;;21.10;36.45
27425;BME280;15244;49.088;11.886;2023-05-08T18:24:36;96281.09;;;21.02;36.60
27425;BME280;15244;49.088;11.886;2023-05-08T18:29:37;96280.94;;;20.93;36.33
27425;BME280;15244;49.088;11.886;2023-05-08T18:34:39;96289.44;;;20.86;36.52
27425;BME280;15244;49.088;11.886;2023-05-08T18:39:41;96288.09;;;20.77;36.86
27425;BME280;15244;49.088;11.886;2023-05-08T18:44:43;96295.03;;;20.69;36.77
27425;BME280;15244;49.088;11.886;2023-05-08T18:49:44;96293.69;;;20.61;36.69
27425;BME280;15244;49.088;11.886;2023-05-08T18:54:47;96305.78;;;20.51;36.80
27425;BME280;15244;49.088;11.886;2023-05-08T18:59:48;96306.75;;;20.44;36.88
27425;BME280;15244;49.088;11.886;2023-05-08T19:04:50;96308.47;;;20.38;37.03
27425;BME280;15244;49.088;11.886;2023-05-08T19:09:53;96311.44;;;20.31;37.34
27425;BME280;15244;49.088;11.886;2023-05-08T19:14:55;96315.91;;;20.25;37.37
27425;BME280;15244;49.088;11.886;2023-05-08T19:19:57;96322.41;;;20.18;37.35
27425;BME280;15244;49.088;11.886;2023-05-08T19:24:58;96308.75;;;20.11;37.85
27425;BME280;15244;49.088;11.886;2023-05-08T19:30:00;96315.22;;;20.04;37.86
27425;BME280;15244;49.088;11.886;2023-05-08T19:35:03;96315.72;;;19.99;37.93
27425;BME280;15244;49.088;11.886;2023-05-08T19:40:05;96314.69;;;19.93;37.75
27425;BME280;15244;49.088;11.886;2023-05-08T19:45:08;96308.56;;;19.85;37.32
27425;BME280;15244;49.088;11.886;2023-05-08T19:50:10;96323.31;;;19.79;37.04
27425;BME280;15244;49.088;11.886;2023-05-08T19:55:18;96317.53;;;19.73;36.90
27425;BME280;15244;49.088;11.886;2023-05-08T20:00:19;96320.84;;;19.64;37.01
27425;BME280;15244;49.088;11.886;2023-05-08T20:05:21;96315.91;;;19.56;37.13
27425;BME280;15244;49.088;11.886;2023-05-08T20:10:23;96315.28;;;19.48;37.03
27425;BME280;15244;49.088;11.886;2023-05-08T20:15:25;96316.19;;;19.41;37.06
27425;BME280;15244;49.088;11.886;2023-05-08T20:20:27;96325.44;;;19.35;37.05
27425;BME280;15244;49.088;11.886;2023-05-08T20:25:30;96328.34;;;19.27;37.17
27425;BME280;15244;49.088;11.886;2023-05-08T20:30:31;96320.19;;;19.20;36.98
27425;BME280;15244;49.088;11.886;2023-05-08T20:35:33;96320.69;;;19.15;37.16
27425;BME280;15244;49.088;11.886;2023-05-08T20:40:35;96314.44;;;19.11;37.22
27425;BME280;15244;49.088;11.886;2023-05-08T20:45:37;96301.56;;;19.04;37.18
27425;BME280;15244;49.088;11.886;2023-05-08T20:50:39;96304.38;;;19.01;37.19
27425;BME280;15244;49.088;11.886;2023-05-08T20:55:40;96307.22;;;18.97;37.34
27425;BME280;15244;49.088;11.886;2023-05-08T21:00:42;96306.06;;;18.95;37.33
27425;BME280;15244;49.088;11.886;2023-05-08T21:05:43;96306.94;;;18.92;37.24
27425;BME280;15244;49.088;11.886;2023-05-08T21:10:45;96302.69;;;18.87;37.30
27425;BME280;15244;49.088;11.886;2023-05-08T21:15:48;96301.94;;;18.83;37.26
27425;BME280;15244;49.088;11.886;2023-05-08T21:20:50;96297.28;;;18.80;37.20
27425;BME280;15244;49.088;11.886;2023-05-08T21:25:52;96287.09;;;18.77;37.27
27425;BME280;15244;49.088;11.886;2023-05-08T21:30:53;96292.63;;;18.73;36.87
27425;BME280;15244;49.088;11.886;2023-05-08T21:35:55;96291.94;;;18.69;37.31
27425;BME280;15244;49.088;11.886;2023-05-08T21:41:04;96284.13;;;18.64;37.28
27425;BME280;15244;49.088;11.886;2023-05-08T21:46:06;96284.63;;;18.59;37.51
27425;BME280;15244;49.088;11.886;2023-05-08T21:51:09;96280.72;;;18.56;37.25
27425;BME280;15244;49.088;11.886;2023-05-08T21:56:11;96276.03;;;18.53;37.29
27425;BME280;15244;49.088;11.886;2023-05-08T22:01:12;96280.00;;;18.52;37.33
27425;BME280;15244;49.088;11.886;2023-05-08T22:06:14;96271.34;;;18.50;37.26
27425;BME280;15244;49.088;11.886;2023-05-08T22:11:15;96274.19;;;18.47;37.70
27425;BME280;15244;49.088;11.886;2023-05-08T22:16:17;96268.72;;;18.43;37.49
27425;BME280;15244;49.088;11.886;2023-05-08T22:21:18;96270.34;;;18.40;37.51
27425;BME280;15244;49.088;11.886;2023-05-08T22:26:20;96262.91;;;18.37;38.03
27425;BME280;15244;49.088;11.886;2023-05-08T22:31:22;96254.28;;;18.35;38.10
27425;BME280;15244;49.088;11.886;2023-05-08T22:36:24;96260.63;;;18.32;38.18
27425;BME280;15244;49.088;11.886;2023-05-08T22:41:28;96249.22;;;18.30;38.28
27425;BME280;15244;49.088;11.886;2023-05-08T22:46:31;96248.91;;;18.28;38.32
27425;BME280;15244;49.088;11.886;2023-05-08T22:51:34;96253.28;;;18.26;38.58
27425;BME280;15244;49.088;11.886;2023-05-08T22:56:36;96249.38;;;18.23;38.87
27425;BME280;15244;49.088;11.886;2023-05-08T23:01:38;96254.94;;;18.19;39.07
27425;BME280;15244;49.088;11.886;2023-05-08T23:06:40;96256.16;;;18.18;39.24
27425;BME280;15244;49.088;11.886;2023-05-08T23:11:42;96253.81;;;18.17;39.52
27425;BME280;15244;49.088;11.886;2023-05-08T23:16:43;96246.38;;;18.14;39.62
27425;BME280;15244;49.088;11.886;2023-05-08T23:21:45;96248.00;;;18.11;39.71
27425;BME280;15244;49.088;11.886;2023-05-08T23:26:46;96239.34;;;18.09;39.78
27425;BME280;15244;49.088;11.886;2023-05-08T23:31:49;96258.75;;;18.06;40.05
27425;BME280;15244;49.088;11.886;2023-05-08T23:36:51;96235.09;;;18.05;40.20
27425;BME280;15244;49.088;11.886;2023-05-08T23:41:53;96237.06;;;18.04;40.13
27425;BME280;15244;49.088;11.886;2023-05-08T23:46:54;96238.69;;;18.02;40.13
27425;BME280;15244;49.088;11.886;2023-05-08T23:51:56;96239.53;;;17.98;40.60
27425;BME280;15244;49.088;11.886;2023-05-08T23:56:57;96240.38;;;17.95;40.50
